Time;durP1;ratioP1;P1;durP2;ratioP2;P2;SDS_P1;SDS_P2;PMS_P1;PMS_P2;Temp;Humidity;BMP_temperature;BMP_pressure;BME280_temperature;BME280_humidity;BME280_pressure;Samples;Min_cycle;Max_cycle;Signal;HPM_P1;HPM_P2
2024/01/23 00:00:17;;;;;;;15.07;1.90;;;8.10;99.90;;;;;;4989600;28;20547;-65
2024/01/23 00:02:44;;;;;;;4.03;1.73;;;8.10;99.90;;;;;;4993331;28;20509;-66
2024/01/23 00:05:11;;;;;;;27.80;3.33;;;8.10;99.90;;;;;;4984973;28;20486;-67
2024/01/23 00:07:38;;;;;;;4.63;2.13;;;8.10;99.90;;;;;;4997583;28;20496;-68
2024/01/23 00:10:05;;;;;;;6.93;2.00;;;8.00;99.90;;;;;;4959443;28;20501;-68
2024/01/23 00:12:32;;;;;;;6.70;2.97;;;8.20;99.90;;;;;;5000328;28;20563;-65
2024/01/23 00:14:59;;;;;;;11.63;2.00;;;8.10;99.90;;;;;;5000397;28;20480;-68
2024/01/23 00:17:27;;;;;;;7.03;1.73;;;8.10;99.90;;;;;;4980405;28;20484;-68
2024/01/23 00:19:55;;;;;;;8.33;1.70;;;8.10;99.90;;;;;;5009097;28;20493;-68
2024/01/23 00:22:21;;;;;;;5.50;2.07;;;8.00;99.90;;;;;;4984696;28;20574;-67
2024/01/23 00:24:48;;;;;;;2.30;1.40;;;8.10;99.90;;;;;;4958573;28;20554;-65
2024/01/23 00:27:15;;;;;;;9.40;1.33;;;8.00;99.90;;;;;;4975978;28;20477;-64
2024/01/23 00:29:42;;;;;;;5.33;1.37;;;8.00;99.90;;;;;;5003598;28;20526;-65
2024/01/23 00:32:09;;;;;;;4.80;1.80;;;8.00;99.90;;;;;;4996611;28;20492;-67
2024/01/23 00:34:37;;;;;;;11.63;2.13;;;7.90;99.90;;;;;;5005105;28;20574;-65
2024/01/23 00:37:04;;;;;;;9.80;3.13;;;7.90;99.90;;;;;;4966694;28;20961;-66
2024/01/23 00:39:31;;;;;;;22.67;2.57;;;7.90;99.90;;;;;;4992364;28;20520;-66
2024/01/23 00:41:58;;;;;;;2.60;1.43;;;7.90;99.90;;;;;;4979552;28;20477;-67
2024/01/23 00:44:25;;;;;;;6.20;1.93;;;7.90;99.90;;;;;;4972612;28;20523;-68
2024/01/23 00:46:52;;;;;;;11.43;2.70;;;8.00;99.90;;;;;;4997461;28;20485;-64
2024/01/23 00:49:19;;;;;;;10.17;2.73;;;8.00;99.90;;;;;;4997034;28;20489;-67
2024/01/23 00:51:47;;;;;;;11.80;2.57;;;8.00;99.90;;;;;;5005583;28;20876;-67
2024/01/23 00:54:14;;;;;;;5.10;1.00;;;8.00;99.90;;;;;;4969676;28;20485;-66
2024/01/23 00:56:42;;;;;;;2.53;1.27;;;8.00;99.90;;;;;;5008503;28;20481;-64
2024/01/23 00:59:09;;;;;;;11.63;2.63;;;8.10;99.90;;;;;;4986086;28;20509;-64
2024/01/23 01:01:36;;;;;;;4.80;1.67;;;8.00;99.90;;;;;;4991563;28;20497;-64
2024/01/23 01:04:03;;;;;;;6.27;1.87;;;8.10;99.90;;;;;;4964135;28;20917;-65
2024/01/23 01:06:30;;;;;;;1.80;0.93;;;8.10;99.90;;;;;;4995088;28;20477;-66
2024/01/23 01:08:59;;;;;;;27.07;2.50;;;8.10;99.90;;;;;;4990378;28;20479;-62
2024/01/23 01:11:33;;;;;;;10.83;2.40;;;8.00;99.90;;;;;;4965349;28;20483;-63
2024/01/23 01:14:00;;;;;;;17.33;2.10;;;8.00;99.90;;;;;;4993246;28;20489;-63
2024/01/23 01:16:28;;;;;;;6.67;2.17;;;8.10;99.90;;;;;;4984879;28;20900;-63
2024/01/23 01:18:55;;;;;;;5.97;2.13;;;8.10;99.90;;;;;;4963773;28;20727;-64
2024/01/23 01:21:22;;;;;;;3.93;1.47;;;8.10;99.90;;;;;;4971109;28;20497;-64
2024/01/23 01:23:49;;;;;;;10.47;1.87;;;8.10;99.90;;;;;;4969785;28;20538;-64
2024/01/23 01:26:17;;;;;;;21.13;3.40;;;8.20;99.90;;;;;;4970930;28;20484;-63
2024/01/23 01:28:44;;;;;;;3.70;1.50;;;8.10;99.90;;;;;;5004749;28;20476;-66
2024/01/23 01:31:11;;;;;;;31.10;2.73;;;8.10;99.90;;;;;;4950708;28;20610;-66
2024/01/23 01:33:38;;;;;;;5.83;1.80;;;8.00;99.90;;;;;;4984383;28;20522;-63
2024/01/23 01:36:06;;;;;;;10.77;2.17;;;8.00;99.90;;;;;;5003615;28;20475;-64
2024/01/23 01:38:33;;;;;;;3.77;1.40;;;7.90;99.90;;;;;;5011853;28;20479;-66
2024/01/23 01:41:00;;;;;;;8.47;2.47;;;;;;;;;;5023454;28;20541;-63
2024/01/23 01:43:30;;;;;;;16.30;3.00;;;8.00;99.90;;;;;;5010746;28;20480;-64
2024/01/23 01:46:12;;;;;;;9.40;2.73;;;8.10;99.90;;;;;;4990116;28;20542;-63
2024/01/23 01:48:39;;;;;;;19.93;3.10;;;8.10;99.90;;;;;;4998670;28;20488;-65
2024/01/23 01:51:07;;;;;;;12.30;2.77;;;8.10;99.90;;;;;;4955040;28;20609;-63
2024/01/23 01:53:34;;;;;;;7.20;2.10;;;8.00;99.90;;;;;;5007742;28;20468;-65
2024/01/23 01:56:02;;;;;;;12.50;1.97;;;8.20;99.90;;;;;;5020063;28;21062;-63
2024/01/23 01:58:33;;;;;;;11.03;2.33;;;8.10;99.90;;;;;;4988323;28;20484;-62
2024/01/23 02:01:00;;;;;;;7.63;1.50;;;8.10;99.90;;;;;;5001211;28;20588;-65
2024/01/23 02:03:27;;;;;;;17.57;3.77;;;8.10;99.90;;;;;;5008572;28;20512;-63
2024/01/23 02:05:56;;;;;;;12.67;1.60;;;8.00;99.90;;;;;;4957339;28;20576;-63
2024/01/23 02:08:23;;;;;;;7.97;2.07;;;8.10;99.90;;;;;;4997810;28;20841;-65
2024/01/23 02:10:50;;;;;;;9.50;2.93;;;8.10;99.90;;;;;;4987332;28;20906;-66
2024/01/23 02:13:18;;;;;;;4.93;1.90;;;8.10;99.90;;;;;;4977662;28;20481;-63
2024/01/23 02:15:46;;;;;;;28.00;3.93;;;8.10;99.90;;;;;;4988473;28;20492;-63
2024/01/23 02:18:13;;;;;;;8.07;2.80;;;8.10;99.90;;;;;;4995672;28;20489;-63
2024/01/23 02:20:40;;;;;;;10.80;3.53;;;8.10;99.90;;;;;;5020586;28;20476;-64
2024/01/23 02:23:12;;;;;;;17.97;2.30;;;8.00;99.90;;;;;;5007436;28;20542;-65
2024/01/23 02:25:41;;;;;;;14.37;2.23;;;8.00;99.90;;;;;;5005415;28;20616;-63
2024/01/23 02:28:08;;;;;;;9.00;2.40;;;7.90;99.90;;;;;;5010905;28;20484;-64
2024/01/23 02:30:35;;;;;;;5.73;2.93;;;7.90;99.90;;;;;;4992086;28;20511;-64
2024/01/23 02:33:03;;;;;;;10.57;2.90;;;7.90;99.90;;;;;;5010630;28;20489;-66
2024/01/23 02:35:30;;;;;;;9.00;2.70;;;7.80;99.90;;;;;;5027816;28;20671;-65
2024/01/23 02:37:57;;;;;;;18.37;2.60;;;7.90;99.90;;;;;;4999141;28;20900;-63
2024/01/23 02:40:24;;;;;;;15.93;4.00;;;7.90;99.90;;;;;;4995225;28;20492;-63
2024/01/23 02:42:53;;;;;;;6.83;2.80;;;7.80;99.90;;;;;;5003925;28;20465;-63
2024/01/23 02:45:20;;;;;;;26.93;2.53;;;7.90;99.90;;;;;;4980851;28;21028;-64
2024/01/23 02:47:47;;;;;;;5.30;2.23;;;7.90;99.90;;;;;;5006226;28;20485;-66
2024/01/23 02:50:14;;;;;;;15.63;2.80;;;7.90;99.90;;;;;;5008675;28;20500;-64
2024/01/23 02:52:41;;;;;;;10.43;2.90;;;7.90;99.90;;;;;;4982947;28;20845;-63
2024/01/23 02:55:09;;;;;;;2.27;1.40;;;7.80;99.90;;;;;;5008683;28;20898;-65
2024/01/23 02:57:35;;;;;;;20.03;3.20;;;7.90;99.90;;;;;;4987680;28;20516;-65
2024/01/23 03:00:05;;;;;;;13.07;2.30;;;7.90;99.90;;;;;;5009922;28;20902;-64
2024/01/23 03:02:31;;;;;;;11.33;2.20;;;7.90;99.90;;;;;;4993885;28;20532;-62
2024/01/23 03:04:58;;;;;;;8.30;3.37;;;7.90;99.90;;;;;;4998717;28;20491;-65
2024/01/23 03:07:25;;;;;;;7.80;3.30;;;7.90;99.90;;;;;;4998251;28;20477;-65
2024/01/23 03:09:52;;;;;;;20.80;4.07;;;7.90;99.90;;;;;;4975272;28;20529;-64
2024/01/23 03:12:21;;;;;;;5.70;2.63;;;7.90;99.90;;;;;;4979039;28;20521;-65
2024/01/23 03:14:49;;;;;;;8.47;3.43;;;8.00;99.90;;;;;;5003764;28;20530;-63
2024/01/23 03:17:18;;;;;;;11.73;3.00;;;8.00;99.90;;;;;;4989442;28;20514;-64
2024/01/23 03:19:45;;;;;;;22.63;4.07;;;8.00;99.90;;;;;;5004530;28;20495;-66
2024/01/23 03:22:13;;;;;;;9.57;2.17;;;8.00;99.90;;;;;;5005065;28;20561;-70
2024/01/23 03:24:42;;;;;;;13.50;1.97;;;;;;;;;;4984072;28;20719;-67
2024/01/23 03:27:09;;;;;;;21.77;3.77;;;8.00;99.90;;;;;;4997233;28;20490;-68
2024/01/23 03:29:40;;;;;;;6.07;2.13;;;8.00;99.90;;;;;;4981446;28;20552;-66
2024/01/23 03:32:08;;;;;;;25.60;4.30;;;8.00;99.90;;;;;;4996514;28;21025;-67
2024/01/23 03:34:37;;;;;;;30.93;4.00;;;8.00;99.90;;;;;;4989508;28;20510;-68
2024/01/23 03:37:04;;;;;;;31.20;3.80;;;8.00;99.90;;;;;;4973481;28;20477;-67
2024/01/23 03:39:32;;;;;;;10.17;3.73;;;8.00;99.90;;;;;;5009793;28;20523;-66
2024/01/23 03:41:59;;;;;;;18.30;3.60;;;8.00;99.90;;;;;;4963899;28;20586;-68
2024/01/23 03:44:26;;;;;;;7.90;3.20;;;8.00;99.90;;;;;;5000432;28;20481;-70
2024/01/23 03:46:54;;;;;;;18.23;2.73;;;7.90;99.90;;;;;;4982618;28;20525;-69
2024/01/23 03:49:21;;;;;;;9.97;2.47;;;8.00;99.90;;;;;;4976646;28;20556;-66
2024/01/23 03:51:51;;;;;;;11.90;3.43;;;7.90;99.90;;;;;;4989268;28;20941;-66
2024/01/23 03:54:17;;;;;;;19.67;2.97;;;8.00;99.90;;;;;;4994642;28;21359;-70
2024/01/23 03:56:44;;;;;;;10.90;1.80;;;8.00;99.90;;;;;;4996036;28;20496;-68
2024/01/23 03:59:11;;;;;;;10.03;1.80;;;8.00;99.90;;;;;;5020565;28;20538;-68
2024/01/23 04:01:38;;;;;;;15.27;2.73;;;8.00;99.90;;;;;;5007634;28;20840;-67
2024/01/23 04:04:05;;;;;;;9.43;2.23;;;7.90;99.90;;;;;;4992997;28;20495;-68
2024/01/23 04:06:32;;;;;;;11.87;3.67;;;7.90;99.90;;;;;;5014079;28;20757;-65
2024/01/23 04:09:02;;;;;;;21.37;2.87;;;7.90;99.90;;;;;;4976813;28;20482;-65
2024/01/23 04:11:30;;;;;;;14.87;4.33;;;7.90;99.90;;;;;;5009934;28;20489;-70
2024/01/23 04:13:57;;;;;;;8.53;1.57;;;8.00;99.90;;;;;;4999654;28;20569;-67
2024/01/23 04:16:23;;;;;;;4.93;2.50;;;8.00;99.90;;;;;;5005454;28;20974;-67
2024/01/23 04:18:54;;;;;;;6.87;1.93;;;8.00;99.90;;;;;;4986771;28;20496;-68
2024/01/23 04:21:21;;;;;;;9.83;1.80;;;8.10;99.90;;;;;;5005959;28;20886;-65
2024/01/23 04:23:48;;;;;;;4.90;1.80;;;8.10;99.90;;;;;;5007127;28;20483;-69
2024/01/23 04:26:18;;;;;;;9.77;2.47;;;;;;;;;;4983648;28;20546;-70
2024/01/23 04:28:46;;;;;;;8.80;1.90;;;8.10;99.90;;;;;;4945858;28;20509;-68
2024/01/23 04:31:14;;;;;;;25.27;2.50;;;8.20;99.90;;;;;;4985160;28;20484;-64
2024/01/23 04:33:41;;;;;;;21.40;3.40;;;8.20;99.90;;;;;;5008693;28;20681;-63
2024/01/23 04:36:08;;;;;;;9.83;1.97;;;8.20;99.90;;;;;;5020277;28;20495;-65
2024/01/23 04:38:35;;;;;;;4.87;1.90;;;8.20;99.90;;;;;;4999713;28;20880;-64
2024/01/23 04:41:02;;;;;;;16.83;2.23;;;8.20;99.90;;;;;;5007482;28;20537;-63
2024/01/23 04:43:30;;;;;;;14.27;1.77;;;8.20;99.90;;;;;;4968202;28;20540;-64
2024/01/23 04:45:57;;;;;;;11.00;1.70;;;8.20;99.90;;;;;;5002272;28;20480;-63
2024/01/23 04:48:24;;;;;;;15.20;2.67;;;8.20;99.90;;;;;;5000501;28;21026;-66
2024/01/23 04:50:51;;;;;;;9.13;1.43;;;8.20;99.90;;;;;;5014532;28;20864;-63
2024/01/23 04:53:17;;;;;;;5.17;1.77;;;8.20;99.90;;;;;;4999976;28;20554;-64
2024/01/23 04:55:44;;;;;;;9.37;1.40;;;8.20;99.90;;;;;;5018730;28;20910;-63
2024/01/23 04:58:11;;;;;;;16.27;2.90;;;8.20;99.90;;;;;;5009576;28;20638;-63
2024/01/23 05:00:39;;;;;;;6.93;1.70;;;8.20;99.90;;;;;;5025062;28;20489;-65
2024/01/23 05:03:07;;;;;;;10.90;2.13;;;8.20;99.90;;;;;;4996866;28;20526;-64
2024/01/23 05:05:33;;;;;;;7.83;1.27;;;8.20;99.90;;;;;;5002056;28;20963;-65
2024/01/23 05:08:00;;;;;;;19.43;2.80;;;8.20;99.90;;;;;;5022947;28;20931;-64
2024/01/23 05:10:27;;;;;;;12.73;2.80;;;8.20;99.90;;;;;;4978490;28;20486;-65
2024/01/23 05:12:54;;;;;;;10.03;2.40;;;8.10;99.90;;;;;;5022570;28;21199;-64
2024/01/23 05:15:21;;;;;;;7.63;1.57;;;8.10;99.90;;;;;;4978741;28;20560;-66
2024/01/23 05:17:49;;;;;;;5.13;1.50;;;8.10;99.90;;;;;;4983032;28;20522;-65
2024/01/23 05:20:16;;;;;;;8.80;2.23;;;8.10;99.90;;;;;;5028827;28;20551;-63
2024/01/23 05:22:43;;;;;;;8.20;1.80;;;8.00;99.90;;;;;;4990871;28;20485;-63
2024/01/23 05:25:10;;;;;;;11.00;2.13;;;8.00;99.90;;;;;;4987727;28;20481;-63
2024/01/23 05:27:37;;;;;;;5.30;1.90;;;8.00;99.90;;;;;;4983760;28;20489;-64
2024/01/23 05:30:06;;;;;;;14.23;1.77;;;7.90;99.90;;;;;;4956141;28;20872;-64
2024/01/23 05:32:33;;;;;;;7.97;1.37;;;7.80;99.90;;;;;;4970331;28;20485;-64
2024/01/23 05:35:03;;;;;;;7.43;1.10;;;7.80;99.90;;;;;;5012625;28;20868;-64
2024/01/23 05:37:31;;;;;;;10.97;2.00;;;7.80;99.90;;;;;;4999416;28;20481;-64
2024/01/23 05:39:58;;;;;;;4.97;1.90;;;7.90;99.90;;;;;;5020565;28;20553;-64
2024/01/23 05:42:25;;;;;;;15.70;3.10;;;7.80;99.90;;;;;;4982380;28;20522;-65
2024/01/23 05:44:52;;;;;;;9.40;2.00;;;7.80;99.90;;;;;;5011780;28;20908;-66
2024/01/23 05:47:19;;;;;;;12.33;2.10;;;7.80;99.90;;;;;;5008803;28;20481;-63
2024/01/23 05:49:46;;;;;;;27.80;3.40;;;7.80;99.90;;;;;;5024565;28;20491;-65
2024/01/23 05:52:15;;;;;;;6.93;2.50;;;8.00;99.90;;;;;;5025714;28;20487;-64
2024/01/23 05:54:44;;;;;;;6.37;2.17;;;8.00;99.90;;;;;;4972919;28;20480;-66
2024/01/23 05:57:11;;;;;;;14.63;2.43;;;8.00;99.90;;;;;;5002270;28;20547;-64
2024/01/23 05:59:38;;;;;;;9.17;2.83;;;8.00;99.90;;;;;;5001443;28;20504;-63
2024/01/23 06:02:05;;;;;;;13.73;3.30;;;7.90;99.90;;;;;;4988223;28;20509;-62
2024/01/23 06:04:32;;;;;;;17.90;3.30;;;7.70;99.90;;;;;;4995988;28;20484;-63
2024/01/23 06:06:59;;;;;;;5.23;2.57;;;7.80;99.90;;;;;;4996797;28;20472;-64
2024/01/23 06:09:29;;;;;;;8.37;2.40;;;;;;;;;;4993027;28;20498;-63
2024/01/23 06:11:56;;;;;;;22.83;3.07;;;7.80;99.90;;;;;;4986572;28;20498;-63
2024/01/23 06:14:23;;;;;;;15.60;2.30;;;7.90;99.90;;;;;;5005109;28;20943;-64
2024/01/23 06:16:50;;;;;;;25.57;3.43;;;7.80;99.90;;;;;;4998770;28;20481;-63
2024/01/23 06:19:18;;;;;;;12.47;2.93;;;7.80;99.90;;;;;;4998016;28;20885;-63
2024/01/23 06:21:45;;;;;;;12.10;3.13;;;7.70;99.90;;;;;;4982431;28;20495;-64
2024/01/23 06:24:12;;;;;;;22.60;3.67;;;7.70;99.90;;;;;;4969558;28;20492;-63
2024/01/23 06:26:40;;;;;;;36.40;4.13;;;7.80;99.90;;;;;;4985803;28;20481;-64
2024/01/23 06:29:07;;;;;;;16.43;3.60;;;7.90;99.90;;;;;;5023151;28;20485;-63
2024/01/23 06:31:34;;;;;;;15.27;4.03;;;7.90;99.90;;;;;;5003662;28;20476;-64
2024/01/23 06:34:04;;;;;;;9.63;3.50;;;7.90;99.90;;;;;;4996506;28;20845;-64
2024/01/23 06:36:31;;;;;;;20.70;3.60;;;7.80;99.90;;;;;;4933035;28;20920;-63
2024/01/23 06:38:58;;;;;;;20.50;3.40;;;7.90;99.90;;;;;;4999948;28;20491;-63
2024/01/23 06:41:25;;;;;;;8.43;3.07;;;7.80;99.90;;;;;;4998254;28;20568;-63
2024/01/23 06:43:54;;;;;;;17.50;3.70;;;;;;;;;;5007274;28;20526;-63
2024/01/23 06:46:21;;;;;;;14.17;4.10;;;7.80;99.90;;;;;;4996615;28;20894;-63
2024/01/23 06:48:48;;;;;;;14.33;4.10;;;7.80;99.90;;;;;;4999143;28;20543;-63
2024/01/23 06:51:15;;;;;;;17.20;3.30;;;7.80;99.90;;;;;;5010902;28;20874;-63
2024/01/23 06:53:41;;;;;;;12.47;3.53;;;7.80;99.90;;;;;;4993939;28;20491;-64
2024/01/23 06:56:08;;;;;;;18.30;3.27;;;7.80;99.90;;;;;;5028318;28;20491;-65
2024/01/23 06:58:36;;;;;;;15.73;4.23;;;7.80;99.90;;;;;;5030045;28;20477;-66
2024/01/23 07:01:05;;;;;;;16.23;3.73;;;7.90;99.90;;;;;;4959183;28;20484;-68
2024/01/23 07:03:31;;;;;;;11.53;3.80;;;7.90;99.90;;;;;;4992859;28;21198;-70
2024/01/23 07:05:58;;;;;;;12.90;3.00;;;7.80;99.90;;;;;;5018124;28;20475;-69
2024/01/23 07:08:25;;;;;;;13.27;3.67;;;7.80;99.90;;;;;;5018371;28;20512;-69
2024/01/23 07:10:52;;;;;;;12.63;3.23;;;7.80;99.90;;;;;;4998591;28;20909;-67
2024/01/23 07:13:19;;;;;;;22.00;3.93;;;7.80;99.90;;;;;;4989650;28;20480;-67
2024/01/23 07:15:46;;;;;;;8.37;2.20;;;7.70;99.90;;;;;;4984599;28;20488;-66
2024/01/23 07:18:14;;;;;;;11.00;2.90;;;7.80;99.90;;;;;;4986941;28;20860;-66
2024/01/23 07:20:41;;;;;;;21.77;4.37;;;7.80;99.90;;;;;;4990591;28;20576;-67
2024/01/23 07:23:08;;;;;;;14.23;3.93;;;7.80;99.90;;;;;;4996681;28;20588;-69
2024/01/23 07:25:35;;;;;;;20.97;3.63;;;7.80;99.90;;;;;;4993654;28;20570;-67
2024/01/23 07:28:01;;;;;;;13.33;3.77;;;7.80;99.90;;;;;;4981352;28;20515;-68
2024/01/23 07:30:28;;;;;;;6.97;2.93;;;7.80;99.90;;;;;;4979838;28;20543;-69
2024/01/23 07:32:55;;;;;;;17.87;3.17;;;7.90;99.90;;;;;;5017940;28;20548;-70
2024/01/23 07:35:23;;;;;;;13.27;3.30;;;7.90;99.90;;;;;;4996469;28;21147;-68
2024/01/23 07:37:51;;;;;;;21.07;4.17;;;8.00;99.90;;;;;;4970247;28;20485;-68
2024/01/23 07:40:18;;;;;;;21.33;3.83;;;8.00;99.90;;;;;;4956152;28;20845;-69
2024/01/23 07:42:45;;;;;;;13.43;3.00;;;8.10;99.90;;;;;;4985036;28;20483;-70
2024/01/23 07:45:12;;;;;;;19.33;3.83;;;8.00;99.90;;;;;;4986924;28;20493;-68
2024/01/23 07:47:39;;;;;;;11.57;3.03;;;8.00;99.90;;;;;;4974669;28;20906;-68
2024/01/23 07:50:07;;;;;;;8.97;3.97;;;8.00;99.90;;;;;;4970267;28;20484;-65
2024/01/23 07:52:36;;;;;;;6.50;2.17;;;8.00;99.90;;;;;;4995490;28;20921;-70
2024/01/23 07:55:03;;;;;;;14.83;2.80;;;7.90;99.90;;;;;;4995880;28;21042;-70
2024/01/23 07:57:30;;;;;;;8.57;2.63;;;7.90;99.90;;;;;;4973671;28;20497;-68
2024/01/23 07:59:58;;;;;;;31.83;4.63;;;7.90;99.90;;;;;;4998738;28;20481;-67
2024/01/23 08:02:25;;;;;;;13.53;2.60;;;7.90;99.90;;;;;;4970839;28;20486;-69
2024/01/23 08:04:52;;;;;;;13.23;3.43;;;8.00;99.90;;;;;;4975042;28;20566;-67
2024/01/23 08:07:19;;;;;;;14.33;3.30;;;8.00;99.90;;;;;;4967946;28;20536;-68
2024/01/23 08:09:47;;;;;;;12.30;3.93;;;8.00;99.90;;;;;;4997476;28;20880;-66
2024/01/23 08:12:15;;;;;;;17.63;3.17;;;8.00;99.90;;;;;;4978643;28;21048;-62
2024/01/23 08:14:42;;;;;;;13.90;2.97;;;7.90;99.90;;;;;;4981027;28;20942;-65
2024/01/23 08:17:09;;;;;;;9.93;3.10;;;7.90;99.90;;;;;;4974440;28;20484;-65
2024/01/23 08:19:37;;;;;;;9.73;3.00;;;7.90;99.90;;;;;;4992893;28;20477;-65
2024/01/23 08:22:04;;;;;;;13.23;4.30;;;8.00;99.90;;;;;;4973312;28;20579;-66
2024/01/23 08:24:31;;;;;;;15.00;3.83;;;8.10;99.90;;;;;;4998319;28;20485;-65
2024/01/23 08:26:59;;;;;;;8.80;3.17;;;8.10;99.90;;;;;;4984362;28;20814;-65
2024/01/23 08:29:26;;;;;;;34.03;4.67;;;8.30;99.90;;;;;;4998985;28;20497;-65
2024/01/23 08:31:53;;;;;;;13.50;2.87;;;8.30;99.90;;;;;;4969815;28;20484;-65
2024/01/23 08:34:20;;;;;;;32.23;4.10;;;8.30;99.90;;;;;;4989550;28;20785;-65
2024/01/23 08:36:46;;;;;;;13.73;3.17;;;8.30;99.90;;;;;;4994267;28;20485;-63
2024/01/23 08:39:13;;;;;;;14.80;3.40;;;8.30;99.90;;;;;;4997464;28;20504;-63
2024/01/23 08:41:40;;;;;;;32.73;4.90;;;8.30;99.90;;;;;;4951010;28;20855;-64
2024/01/23 08:44:09;;;;;;;5.43;2.50;;;8.30;99.90;;;;;;4992414;28;20697;-65
2024/01/23 08:46:35;;;;;;;15.83;3.60;;;8.30;99.90;;;;;;4965278;28;20542;-66
2024/01/23 08:49:03;;;;;;;27.63;6.10;;;8.30;99.90;;;;;;4966989;28;20490;-62
2024/01/23 08:51:30;;;;;;;20.10;4.83;;;8.40;99.90;;;;;;4981336;28;20485;-63
2024/01/23 08:53:57;;;;;;;20.80;3.50;;;8.40;99.90;;;;;;5008868;28;20481;-66
2024/01/23 08:56:25;;;;;;;18.33;3.90;;;8.50;99.90;;;;;;4989060;28;20526;-65
2024/01/23 08:58:52;;;;;;;4.00;2.10;;;8.60;99.90;;;;;;4977640;28;20901;-65
2024/01/23 09:01:23;;;;;;;13.23;2.90;;;8.60;99.90;;;;;;5001713;28;20695;-64
2024/01/23 09:03:50;;;;;;;16.33;4.23;;;8.50;99.90;;;;;;4997573;28;20481;-65
2024/01/23 09:06:17;;;;;;;19.83;4.63;;;8.60;99.90;;;;;;5001603;28;20538;-65
2024/01/23 09:08:44;;;;;;;56.77;4.87;;;8.60;99.90;;;;;;5007409;28;20549;-63
2024/01/23 09:11:11;;;;;;;19.47;3.07;;;8.60;99.90;;;;;;4982885;28;20488;-61
2024/01/23 09:13:39;;;;;;;21.13;3.90;;;8.70;99.90;;;;;;4967750;28;20481;-65
2024/01/23 09:16:06;;;;;;;19.87;4.30;;;8.60;99.90;;;;;;4975913;28;20494;-64
2024/01/23 09:18:38;;;;;;;12.47;3.80;;;8.70;99.90;;;;;;4987367;28;20496;-65
2024/01/23 09:21:05;;;;;;;12.53;4.70;;;8.60;99.90;;;;;;4995728;28;20477;-65
2024/01/23 09:23:32;;;;;;;16.13;3.10;;;8.70;99.90;;;;;;4937068;28;20522;-65
2024/01/23 09:25:59;;;;;;;19.03;5.73;;;8.80;99.90;;;;;;4981468;28;20558;-63
2024/01/23 09:28:25;;;;;;;10.40;3.97;;;8.90;99.90;;;;;;4996996;28;20551;-64
2024/01/23 09:30:52;;;;;;;30.13;5.07;;;9.00;99.90;;;;;;4944423;28;20934;-64
2024/01/23 09:33:19;;;;;;;23.63;5.23;;;9.00;99.90;;;;;;4953577;28;20572;-62
2024/01/23 09:35:48;;;;;;;12.00;3.63;;;9.10;99.90;;;;;;5002012;28;20481;-65
2024/01/23 09:38:15;;;;;;;14.57;4.40;;;9.40;99.90;;;;;;4971229;28;20928;-66
2024/01/23 09:40:42;;;;;;;20.87;3.77;;;9.50;99.90;;;;;;4994716;28;20473;-65
2024/01/23 09:43:12;;;;;;;43.33;4.13;;;9.60;99.90;;;;;;4982072;28;20543;-66
2024/01/23 09:45:40;;;;;;;16.30;4.93;;;9.50;99.90;;;;;;4981365;28;20481;-66
2024/01/23 09:48:08;;;;;;;23.47;5.20;;;9.50;99.90;;;;;;4994088;28;20500;-63
2024/01/23 09:50:42;;;;;;;26.73;3.00;;;9.20;99.90;;;;;;5003452;28;20534;-66
2024/01/23 09:53:11;;;;;;;32.73;5.33;;;9.20;99.90;;;;;;4992754;28;20481;-64
2024/01/23 09:55:41;;;;;;;14.07;3.00;;;9.20;99.90;;;;;;4998190;28;20904;-66
2024/01/23 09:58:10;;;;;;;23.27;4.20;;;9.10;99.90;;;;;;4980899;28;20466;-64
2024/01/23 10:00:38;;;;;;;14.63;3.87;;;9.10;99.90;;;;;;5009538;28;20478;-65
2024/01/23 10:03:07;;;;;;;15.30;3.70;;;9.10;99.90;;;;;;4982161;28;20487;-65
2024/01/23 10:05:35;;;;;;;10.43;4.20;;;9.00;99.90;;;;;;4972482;28;20488;-64
2024/01/23 10:08:06;;;;;;;16.00;3.10;;;9.00;99.90;;;;;;5005223;28;20495;-65
2024/01/23 10:10:38;;;;;;;46.57;5.23;;;9.00;99.90;;;;;;4989226;28;20484;-65
2024/01/23 10:13:12;;;;;;;17.27;5.60;;;9.00;99.90;;;;;;4989468;28;21013;-65
2024/01/23 10:15:39;;;;;;;14.43;3.90;;;9.00;99.90;;;;;;5005485;28;20570;-65
2024/01/23 10:18:06;;;;;;;15.67;3.07;;;8.90;99.90;;;;;;5006975;28;20513;-66
2024/01/23 10:20:38;;;;;;;20.00;4.20;;;8.80;99.90;;;;;;5008347;28;20580;-64
2024/01/23 10:23:05;;;;;;;23.10;5.03;;;8.80;99.90;;;;;;4940788;28;20465;-65
2024/01/23 10:25:32;;;;;;;18.70;3.97;;;8.80;99.90;;;;;;5002638;28;20484;-65
2024/01/23 10:28:00;;;;;;;15.70;3.50;;;8.90;99.90;;;;;;4977908;28;20465;-64
2024/01/23 10:30:27;;;;;;;21.93;6.00;;;8.90;99.90;;;;;;5006391;28;20865;-64
2024/01/23 10:32:54;;;;;;;11.30;3.00;;;8.90;99.90;;;;;;5009067;28;20609;-64
2024/01/23 10:35:21;;;;;;;15.70;4.20;;;9.00;99.90;;;;;;4997842;28;20476;-64
2024/01/23 10:37:50;;;;;;;27.00;4.83;;;8.90;99.90;;;;;;4979048;28;20531;-63
2024/01/23 10:40:23;;;;;;;19.50;4.43;;;8.90;99.90;;;;;;4995297;28;20484;-65
2024/01/23 10:42:50;;;;;;;23.63;4.00;;;9.00;99.90;;;;;;5002087;28;20947;-64
2024/01/23 10:45:19;;;;;;;29.87;4.50;;;8.90;99.90;;;;;;5010598;28;20743;-66
2024/01/23 10:47:46;;;;;;;9.27;2.83;;;9.00;99.90;;;;;;5015843;28;20778;-65
2024/01/23 10:50:13;;;;;;;12.13;3.50;;;9.10;99.90;;;;;;4996331;28;20864;-65
2024/01/23 10:52:41;;;;;;;14.13;4.03;;;;;;;;;;5001745;28;20769;-66
2024/01/23 10:55:09;;;;;;;22.27;5.33;;;8.90;99.90;;;;;;5006514;28;20487;-65
2024/01/23 10:57:38;;;;;;;22.40;3.80;;;9.00;99.90;;;;;;4969768;28;20479;-64
2024/01/23 11:00:07;;;;;;;16.37;3.40;;;8.80;99.90;;;;;;4969796;28;20504;-63
2024/01/23 11:02:39;;;;;;;18.80;3.43;;;8.50;99.90;;;;;;4996063;28;20567;-64
2024/01/23 11:05:06;;;;;;;14.17;4.80;;;8.60;99.90;;;;;;4979901;28;20549;-64
2024/01/23 11:07:39;;;;;;;26.10;5.03;;;;;;;;;;4997861;28;20504;-62
2024/01/23 11:10:16;;;;;;;13.77;3.33;;;8.80;99.90;;;;;;4984923;28;20473;-63
2024/01/23 11:12:46;;;;;;;35.90;5.50;;;;;;;;;;5011712;28;20492;-63
2024/01/23 11:15:15;;;;;;;11.10;3.10;;;8.80;99.90;;;;;;4995109;28;20458;-64
2024/01/23 11:17:43;;;;;;;14.33;4.40;;;8.80;99.90;;;;;;4997015;28;20850;-62
2024/01/23 11:20:13;;;;;;;22.83;4.90;;;8.80;99.90;;;;;;4986585;28;20477;-63
2024/01/23 11:22:40;;;;;;;3.83;1.97;;;8.70;99.90;;;;;;4982014;28;20480;-65
2024/01/23 11:25:09;;;;;;;15.47;4.23;;;8.60;99.90;;;;;;5006829;28;20511;-63
2024/01/23 11:27:39;;;;;;;19.57;5.90;;;8.50;99.90;;;;;;5004440;28;20483;-64
2024/01/23 11:30:11;;;;;;;17.70;2.87;;;8.50;99.90;;;;;;4997326;28;20477;-65
2024/01/23 11:32:38;;;;;;;17.10;4.90;;;8.60;99.90;;;;;;4966073;28;20882;-62
2024/01/23 11:35:11;;;;;;;25.23;5.63;;;8.60;99.90;;;;;;5004847;28;20534;-64
2024/01/23 11:37:47;;;;;;;20.97;5.43;;;8.50;99.90;;;;;;4973408;28;20824;-65
2024/01/23 11:40:34;;;;;;;33.43;5.27;;;8.60;99.90;;;;;;4989039;28;20906;-65
2024/01/23 11:43:03;;;;;;;16.20;4.73;;;8.70;99.90;;;;;;4945752;28;21056;-63
2024/01/23 11:45:32;;;;;;;20.70;2.40;;;8.70;99.90;;;;;;4988169;28;20481;-63
2024/01/23 11:48:01;;;;;;;24.17;5.33;;;8.80;99.90;;;;;;4984705;28;20899;-64
2024/01/23 11:50:31;;;;;;;16.50;3.87;;;8.70;99.90;;;;;;5008723;28;20481;-63
2024/01/23 11:52:59;;;;;;;28.97;5.20;;;8.70;99.90;;;;;;5006107;28;20496;-63
2024/01/23 11:55:27;;;;;;;17.47;3.77;;;8.80;99.90;;;;;;4993213;28;20525;-66
2024/01/23 11:57:55;;;;;;;15.20;3.90;;;8.80;99.90;;;;;;4959220;28;20945;-65
2024/01/23 12:00:23;;;;;;;26.47;5.80;;;8.80;99.90;;;;;;4995516;28;20522;-63
2024/01/23 12:02:51;;;;;;;18.43;5.83;;;9.00;99.90;;;;;;4970931;28;20513;-65
2024/01/23 12:05:19;;;;;;;19.70;4.57;;;9.00;99.90;;;;;;4969885;28;20484;-64
2024/01/23 12:07:47;;;;;;;24.97;4.60;;;9.10;99.90;;;;;;4969263;28;21374;-64
2024/01/23 12:10:16;;;;;;;9.90;3.30;;;9.10;99.90;;;;;;4997678;28;21152;-66
2024/01/23 12:12:44;;;;;;;17.07;4.03;;;9.20;99.90;;;;;;4984850;28;20898;-65
2024/01/23 12:15:11;;;;;;;40.13;5.57;;;9.30;99.90;;;;;;5009245;28;20496;-65
2024/01/23 12:17:46;;;;;;;26.37;5.87;;;9.30;99.90;;;;;;5011863;28;20499;-65
2024/01/23 12:20:13;;;;;;;26.07;5.67;;;9.30;99.90;;;;;;5006990;28;20558;-66
2024/01/23 12:22:41;;;;;;;24.90;6.00;;;9.30;99.90;;;;;;4964824;28;20666;-64
2024/01/23 12:25:11;;;;;;;19.73;5.80;;;9.30;99.90;;;;;;4987347;28;20485;-65
2024/01/23 12:27:38;;;;;;;26.77;5.07;;;9.30;99.90;;;;;;4983870;28;20842;-65
2024/01/23 12:30:10;;;;;;;7.30;3.40;;;9.30;99.90;;;;;;4995685;28;20476;-64
2024/01/23 12:32:37;;;;;;;31.80;5.33;;;9.30;99.90;;;;;;4986625;28;21215;-64
2024/01/23 12:35:09;;;;;;;21.73;4.30;;;9.30;99.90;;;;;;5008503;28;20830;-65
2024/01/23 12:37:38;;;;;;;20.70;6.50;;;9.30;99.90;;;;;;4972655;28;20810;-64
2024/01/23 12:40:10;;;;;;;23.77;6.23;;;9.40;99.90;;;;;;4964439;28;20694;-64
2024/01/23 12:42:39;;;;;;;18.10;4.77;;;9.30;99.90;;;;;;5005396;28;20913;-66
2024/01/23 12:45:10;;;;;;;11.90;3.80;;;9.30;99.90;;;;;;5007376;28;20818;-64
2024/01/23 12:47:37;;;;;;;21.50;5.50;;;9.40;99.90;;;;;;4986518;28;20544;-63
2024/01/23 12:50:04;;;;;;;17.70;4.27;;;9.30;99.90;;;;;;5012055;28;20493;-65
2024/01/23 12:52:31;;;;;;;14.60;3.17;;;9.30;99.90;;;;;;5006071;28;20481;-66
2024/01/23 12:54:58;;;;;;;14.93;4.00;;;9.40;99.90;;;;;;4966557;28;20488;-66